sensor_id;sensor_type;location;lat;lon;timestamp;temperature;humidity
57857;DHT22;43683;48.650;9.290;2023-11-21T00:02:02;7.30;95.40
57857;DHT22;43683;48.650;9.290;2023-11-21T00:04:27;7.20;95.50
57857;DHT22;43683;48.650;9.290;2023-11-21T00:06:54;7.30;95.50
57857;DHT22;43683;48.650;9.290;2023-11-21T00:09:19;7.30;95.40
57857;DHT22;43683;48.650;9.290;2023-11-21T00:11:45;7.30;95.40
57857;DHT22;43683;48.650;9.290;2023-11-21T00:14:11;7.30;95.40
57857;DHT22;43683;48.650;9.290;2023-11-21T00:16:37;7.30;95.40
57857;DHT22;43683;48.650;9.290;2023-11-21T00:19:03;7.40;95.30
57857;DHT22;43683;48.650;9.290;2023-11-21T00:21:28;7.30;95.30
57857;DHT22;43683;48.650;9.290;2023-11-21T00:23:54;7.40;95.30
57857;DHT22;43683;48.650;9.290;2023-11-21T00:26:19;7.40;95.20
57857;DHT22;43683;48.650;9.290;2023-11-21T00:28:45;7.50;95.20
57857;DHT22;43683;48.650;9.290;2023-11-21T00:31:10;7.50;95.20
57857;DHT22;43683;48.650;9.290;2023-11-21T00:33:36;7.50;95.20
57857;DHT22;43683;48.650;9.290;2023-11-21T00:36:02;7.50;95.20
57857;DHT22;43683;48.650;9.290;2023-11-21T00:38:28;7.50;95.20
57857;DHT22;43683;48.650;9.290;2023-11-21T00:40:53;7.60;95.10
57857;DHT22;43683;48.650;9.290;2023-11-21T00:43:24;7.60;95.10
57857;DHT22;43683;48.650;9.290;2023-11-21T00:45:49;7.60;95.20
57857;DHT22;43683;48.650;9.290;2023-11-21T00:48:15;7.60;95.20
57857;DHT22;43683;48.650;9.290;2023-11-21T00:50:41;7.60;95.20
57857;DHT22;43683;48.650;9.290;2023-11-21T00:53:06;7.60;95.20
57857;DHT22;43683;48.650;9.290;2023-11-21T00:55:33;7.60;95.20
57857;DHT22;43683;48.650;9.290;2023-11-21T00:58:00;7.60;95.20
57857;DHT22;43683;48.650;9.290;2023-11-21T01:00:28;7.60;95.20
57857;DHT22;43683;48.650;9.290;2023-11-21T01:02:53;7.60;95.30
57857;DHT22;43683;48.650;9.290;2023-11-21T01:05:19;7.50;95.20
57857;DHT22;43683;48.650;9.290;2023-11-21T01:07:45;7.50;95.30
57857;DHT22;43683;48.650;9.290;2023-11-21T01:10:11;7.50;95.40
57857;DHT22;43683;48.650;9.290;2023-11-21T01:12:37;7.50;95.40
57857;DHT22;43683;48.650;9.290;2023-11-21T01:15:04;7.50;95.70
57857;DHT22;43683;48.650;9.290;2023-11-21T01:17:32;7.50;95.30
57857;DHT22;43683;48.650;9.290;2023-11-21T01:19:59;7.50;95.20
57857;DHT22;43683;48.650;9.290;2023-11-21T01:22:25;7.50;95.20
57857;DHT22;43683;48.650;9.290;2023-11-21T01:24:52;7.50;95.20
57857;DHT22;43683;48.650;9.290;2023-11-21T01:27:18;7.60;95.30
57857;DHT22;43683;48.650;9.290;2023-11-21T01:29:44;7.60;95.20
57857;DHT22;43683;48.650;9.290;2023-11-21T01:32:10;7.70;95.10
57857;DHT22;43683;48.650;9.290;2023-11-21T01:34:36;7.70;95.00
57857;DHT22;43683;48.650;9.290;2023-11-21T01:37:02;7.70;95.00
57857;DHT22;43683;48.650;9.290;2023-11-21T01:39:30;7.70;95.00
57857;DHT22;43683;48.650;9.290;2023-11-21T01:41:55;7.70;95.10
57857;DHT22;43683;48.650;9.290;2023-11-21T01:44:24;7.70;95.10
57857;DHT22;43683;48.650;9.290;2023-11-21T01:46:50;7.70;95.10
57857;DHT22;43683;48.650;9.290;2023-11-21T01:49:17;7.70;95.10
57857;DHT22;43683;48.650;9.290;2023-11-21T01:51:45;7.70;95.10
57857;DHT22;43683;48.650;9.290;2023-11-21T01:54:12;7.70;95.10
57857;DHT22;43683;48.650;9.290;2023-11-21T01:56:38;7.70;95.10
57857;DHT22;43683;48.650;9.290;2023-11-21T01:59:04;7.60;95.10
57857;DHT22;43683;48.650;9.290;2023-11-21T02:01:30;7.70;95.10
57857;DHT22;43683;48.650;9.290;2023-11-21T02:03:56;7.70;95.10
57857;DHT22;43683;48.650;9.290;2023-11-21T02:06:21;7.70;95.00
57857;DHT22;43683;48.650;9.290;2023-11-21T02:08:47;7.70;95.00
57857;DHT22;43683;48.650;9.290;2023-11-21T02:11:13;7.70;95.00
57857;DHT22;43683;48.650;9.290;2023-11-21T02:13:39;7.80;95.00
57857;DHT22;43683;48.650;9.290;2023-11-21T02:16:09;7.80;95.00
57857;DHT22;43683;48.650;9.290;2023-11-21T02:18:35;7.80;95.00
57857;DHT22;43683;48.650;9.290;2023-11-21T02:21:04;7.80;95.00
57857;DHT22;43683;48.650;9.290;2023-11-21T02:23:30;7.70;95.00
57857;DHT22;43683;48.650;9.290;2023-11-21T02:25:55;7.70;95.00
57857;DHT22;43683;48.650;9.290;2023-11-21T02:28:21;7.70;95.10
57857;DHT22;43683;48.650;9.290;2023-11-21T02:30:51;7.60;95.20
57857;DHT22;43683;48.650;9.290;2023-11-21T02:33:21;7.60;95.30
57857;DHT22;43683;48.650;9.290;2023-11-21T02:35:47;7.60;95.20
57857;DHT22;43683;48.650;9.290;2023-11-21T02:38:13;7.60;95.30
57857;DHT22;43683;48.650;9.290;2023-11-21T02:40:39;7.60;95.30
57857;DHT22;43683;48.650;9.290;2023-11-21T02:43:04;7.50;95.20
57857;DHT22;43683;48.650;9.290;2023-11-21T02:45:31;7.40;95.30
57857;DHT22;43683;48.650;9.290;2023-11-21T02:47:57;7.20;95.50
57857;DHT22;43683;48.650;9.290;2023-11-21T02:50:23;7.00;95.70
57857;DHT22;43683;48.650;9.290;2023-11-21T02:52:49;6.90;95.90
57857;DHT22;43683;48.650;9.290;2023-11-21T02:55:15;6.70;96.10
57857;DHT22;43683;48.650;9.290;2023-11-21T02:57:40;6.60;96.30
57857;DHT22;43683;48.650;9.290;2023-11-21T03:00:07;6.60;96.50
57857;DHT22;43683;48.650;9.290;2023-11-21T03:02:33;6.60;96.50
57857;DHT22;43683;48.650;9.290;2023-11-21T03:05:02;6.70;96.40
57857;DHT22;43683;48.650;9.290;2023-11-21T03:07:28;6.80;96.10
57857;DHT22;43683;48.650;9.290;2023-11-21T03:09:53;7.00;95.90
57857;DHT22;43683;48.650;9.290;2023-11-21T03:12:19;7.10;95.70
57857;DHT22;43683;48.650;9.290;2023-11-21T03:14:45;7.10;95.50
57857;DHT22;43683;48.650;9.290;2023-11-21T03:17:10;7.10;95.40
57857;DHT22;43683;48.650;9.290;2023-11-21T03:19:37;7.20;95.40
57857;DHT22;43683;48.650;9.290;2023-11-21T03:22:03;7.20;95.30
57857;DHT22;43683;48.650;9.290;2023-11-21T03:24:29;7.20;95.30
57857;DHT22;43683;48.650;9.290;2023-11-21T03:26:55;7.20;95.30
57857;DHT22;43683;48.650;9.290;2023-11-21T03:29:21;7.30;95.20
57857;DHT22;43683;48.650;9.290;2023-11-21T03:31:46;7.30;95.20
57857;DHT22;43683;48.650;9.290;2023-11-21T03:34:22;7.30;95.20
57857;DHT22;43683;48.650;9.290;2023-11-21T03:36:48;7.30;95.20
57857;DHT22;43683;48.650;9.290;2023-11-21T03:39:14;7.30;95.20
57857;DHT22;43683;48.650;9.290;2023-11-21T03:41:39;7.30;95.20
57857;DHT22;43683;48.650;9.290;2023-11-21T03:44:05;7.30;95.20
57857;DHT22;43683;48.650;9.290;2023-11-21T03:46:30;7.30;95.20
57857;DHT22;43683;48.650;9.290;2023-11-21T03:48:56;7.30;95.20
57857;DHT22;43683;48.650;9.290;2023-11-21T03:51:21;7.30;95.20
57857;DHT22;43683;48.650;9.290;2023-11-21T03:53:47;7.30;95.20
57857;DHT22;43683;48.650;9.290;2023-11-21T03:56:14;7.30;95.20
57857;DHT22;43683;48.650;9.290;2023-11-21T03:58:39;7.30;95.20
57857;DHT22;43683;48.650;9.290;2023-11-21T04:01:05;7.30;95.20
57857;DHT22;43683;48.650;9.290;2023-11-21T04:03:31;7.30;95.20
57857;DHT22;43683;48.650;9.290;2023-11-21T04:05:56;7.30;95.20
57857;DHT22;43683;48.650;9.290;2023-11-21T04:08:22;7.30;95.20
57857;DHT22;43683;48.650;9.290;2023-11-21T04:10:48;7.20;95.20
57857;DHT22;43683;48.650;9.290;2023-11-21T04:13:14;7.30;95.20
57857;DHT22;43683;48.650;9.290;2023-11-21T04:15:39;7.30;95.20
57857;DHT22;43683;48.650;9.290;2023-11-21T04:18:05;7.30;95.20
57857;DHT22;43683;48.650;9.290;2023-11-21T04:20:30;7.30;95.10
57857;DHT22;43683;48.650;9.290;2023-11-21T04:22:56;7.30;95.10
57857;DHT22;43683;48.650;9.290;2023-11-21T04:25:22;7.40;95.10
57857;DHT22;43683;48.650;9.290;2023-11-21T04:27:48;7.40;95.10
57857;DHT22;43683;48.650;9.290;2023-11-21T04:30:14;7.40;95.10
57857;DHT22;43683;48.650;9.290;2023-11-21T04:32:40;7.40;95.10
57857;DHT22;43683;48.650;9.290;2023-11-21T04:35:07;7.40;95.00
57857;DHT22;43683;48.650;9.290;2023-11-21T04:37:34;7.40;95.10
57857;DHT22;43683;48.650;9.290;2023-11-21T04:39:59;7.40;95.00
57857;DHT22;43683;48.650;9.290;2023-11-21T04:42:25;7.40;95.00
57857;DHT22;43683;48.650;9.290;2023-11-21T04:44:50;7.40;95.10
57857;DHT22;43683;48.650;9.290;2023-11-21T04:47:18;7.40;95.00
57857;DHT22;43683;48.650;9.290;2023-11-21T04:49:46;7.40;95.00
57857;DHT22;43683;48.650;9.290;2023-11-21T04:52:12;7.40;95.00
57857;DHT22;43683;48.650;9.290;2023-11-21T04:54:38;7.40;95.00
57857;DHT22;43683;48.650;9.290;2023-11-21T04:57:05;7.40;95.00
57857;DHT22;43683;48.650;9.290;2023-11-21T04:59:32;7.40;95.00
57857;DHT22;43683;48.650;9.290;2023-11-21T05:01:58;7.40;95.00
57857;DHT22;43683;48.650;9.290;2023-11-21T05:04:25;7.40;95.00
57857;DHT22;43683;48.650;9.290;2023-11-21T05:06:51;7.40;95.00
57857;DHT22;43683;48.650;9.290;2023-11-21T05:09:16;7.40;95.00
57857;DHT22;43683;48.650;9.290;2023-11-21T05:11:43;7.40;95.00
57857;DHT22;43683;48.650;9.290;2023-11-21T05:14:08;7.40;95.00
57857;DHT22;43683;48.650;9.290;2023-11-21T05:16:34;7.40;95.00
57857;DHT22;43683;48.650;9.290;2023-11-21T05:19:00;7.50;95.10
57857;DHT22;43683;48.650;9.290;2023-11-21T05:21:27;7.50;95.10
57857;DHT22;43683;48.650;9.290;2023-11-21T05:23:53;7.50;95.00
57857;DHT22;43683;48.650;9.290;2023-11-21T05:26:18;7.50;95.00
57857;DHT22;43683;48.650;9.290;2023-11-21T05:28:44;7.50;95.00
57857;DHT22;43683;48.650;9.290;2023-11-21T05:31:09;7.50;95.00
57857;DHT22;43683;48.650;9.290;2023-11-21T05:33:36;7.50;95.00
57857;DHT22;43683;48.650;9.290;2023-11-21T05:36:02;7.50;95.00
57857;DHT22;43683;48.650;9.290;2023-11-21T05:38:27;7.50;95.00
57857;DHT22;43683;48.650;9.290;2023-11-21T05:40:53;7.40;95.00
57857;DHT22;43683;48.650;9.290;2023-11-21T05:43:19;7.40;95.00
57857;DHT22;43683;48.650;9.290;2023-11-21T05:45:45;7.50;95.10
57857;DHT22;43683;48.650;9.290;2023-11-21T05:48:10;7.40;95.10
57857;DHT22;43683;48.650;9.290;2023-11-21T05:50:36;7.50;95.10
57857;DHT22;43683;48.650;9.290;2023-11-21T05:53:03;7.50;95.10
57857;DHT22;43683;48.650;9.290;2023-11-21T05:55:28;7.40;95.10
57857;DHT22;43683;48.650;9.290;2023-11-21T05:57:54;7.40;95.20
57857;DHT22;43683;48.650;9.290;2023-11-21T06:00:20;7.40;95.20
57857;DHT22;43683;48.650;9.290;2023-11-21T06:02:50;7.40;95.20
57857;DHT22;43683;48.650;9.290;2023-11-21T06:05:19;7.40;95.30
57857;DHT22;43683;48.650;9.290;2023-11-21T06:07:45;7.40;95.30
57857;DHT22;43683;48.650;9.290;2023-11-21T06:10:12;7.40;95.30
57857;DHT22;43683;48.650;9.290;2023-11-21T06:12:39;7.40;95.30
57857;DHT22;43683;48.650;9.290;2023-11-21T06:15:08;7.40;95.20
57857;DHT22;43683;48.650;9.290;2023-11-21T06:17:37;7.40;95.20
57857;DHT22;43683;48.650;9.290;2023-11-21T06:20:10;7.50;95.20
57857;DHT22;43683;48.650;9.290;2023-11-21T06:22:40;7.50;95.20
57857;DHT22;43683;48.650;9.290;2023-11-21T06:25:06;7.50;95.30
57857;DHT22;43683;48.650;9.290;2023-11-21T06:27:41;7.40;95.30
57857;DHT22;43683;48.650;9.290;2023-11-21T06:30:07;7.40;95.40
57857;DHT22;43683;48.650;9.290;2023-11-21T06:32:35;7.40;95.50
57857;DHT22;43683;48.650;9.290;2023-11-21T06:35:01;7.40;95.50
57857;DHT22;43683;48.650;9.290;2023-11-21T06:37:28;7.40;95.50
57857;DHT22;43683;48.650;9.290;2023-11-21T06:39:54;7.40;95.60
57857;DHT22;43683;48.650;9.290;2023-11-21T06:42:20;7.30;95.50
57857;DHT22;43683;48.650;9.290;2023-11-21T06:44:46;7.40;95.60
57857;DHT22;43683;48.650;9.290;2023-11-21T06:47:12;7.40;95.60
57857;DHT22;43683;48.650;9.290;2023-11-21T06:49:37;7.40;95.50
57857;DHT22;43683;48.650;9.290;2023-11-21T06:52:04;7.40;95.50
57857;DHT22;43683;48.650;9.290;2023-11-21T06:54:31;7.40;95.50
57857;DHT22;43683;48.650;9.290;2023-11-21T06:56:57;7.50;95.50
57857;DHT22;43683;48.650;9.290;2023-11-21T06:59:23;7.50;95.40
57857;DHT22;43683;48.650;9.290;2023-11-21T07:01:49;7.50;95.40
57857;DHT22;43683;48.650;9.290;2023-11-21T07:04:15;7.60;95.30
57857;DHT22;43683;48.650;9.290;2023-11-21T07:06:40;7.60;95.30
57857;DHT22;43683;48.650;9.290;2023-11-21T07:09:06;7.60;95.30
57857;DHT22;43683;48.650;9.290;2023-11-21T07:11:34;7.70;95.30
57857;DHT22;43683;48.650;9.290;2023-11-21T07:14:00;7.70;95.20
57857;DHT22;43683;48.650;9.290;2023-11-21T07:16:28;7.80;95.20
57857;DHT22;43683;48.650;9.290;2023-11-21T07:18:55;7.80;95.10
57857;DHT22;43683;48.650;9.290;2023-11-21T07:21:21;7.90;95.00
57857;DHT22;43683;48.650;9.290;2023-11-21T07:23:46;7.90;95.20
57857;DHT22;43683;48.650;9.290;2023-11-21T07:26:12;8.00;94.90
57857;DHT22;43683;48.650;9.290;2023-11-21T07:28:37;8.00;94.90
57857;DHT22;43683;48.650;9.290;2023-11-21T07:31:03;8.10;94.90
57857;DHT22;43683;48.650;9.290;2023-11-21T07:33:29;8.20;94.90
57857;DHT22;43683;48.650;9.290;2023-11-21T07:35:55;8.20;94.80
57857;DHT22;43683;48.650;9.290;2023-11-21T07:38:20;8.30;94.80
57857;DHT22;43683;48.650;9.290;2023-11-21T07:40:46;8.40;94.80
57857;DHT22;43683;48.650;9.290;2023-11-21T07:43:12;8.40;94.70
57857;DHT22;43683;48.650;9.290;2023-11-21T07:45:37;8.50;94.70
57857;DHT22;43683;48.650;9.290;2023-11-21T07:48:03;8.60;94.60
57857;DHT22;43683;48.650;9.290;2023-11-21T07:50:30;8.60;94.60
57857;DHT22;43683;48.650;9.290;2023-11-21T07:52:57;8.60;94.50
57857;DHT22;43683;48.650;9.290;2023-11-21T07:55:26;8.70;94.50
57857;DHT22;43683;48.650;9.290;2023-11-21T07:57:52;8.70;94.50
57857;DHT22;43683;48.650;9.290;2023-11-21T08:00:18;8.70;94.50
57857;DHT22;43683;48.650;9.290;2023-11-21T08:02:45;8.70;94.50
57857;DHT22;43683;48.650;9.290;2023-11-21T08:05:12;8.70;94.40
57857;DHT22;43683;48.650;9.290;2023-11-21T08:07:38;8.70;94.30
57857;DHT22;43683;48.650;9.290;2023-11-21T08:10:04;8.80;94.30
57857;DHT22;43683;48.650;9.290;2023-11-21T08:12:32;8.80;94.20
57857;DHT22;43683;48.650;9.290;2023-11-21T08:14:58;8.80;94.20
57857;DHT22;43683;48.650;9.290;2023-11-21T08:17:24;8.90;94.10
57857;DHT22;43683;48.650;9.290;2023-11-21T08:19:50;9.00;94.00
57857;DHT22;43683;48.650;9.290;2023-11-21T08:22:16;9.00;94.00
57857;DHT22;43683;48.650;9.290;2023-11-21T08:24:44;9.00;93.90
57857;DHT22;43683;48.650;9.290;2023-11-21T08:27:10;9.00;93.90
57857;DHT22;43683;48.650;9.290;2023-11-21T08:29:35;9.10;93.80
57857;DHT22;43683;48.650;9.290;2023-11-21T08:32:02;9.20;93.80
57857;DHT22;43683;48.650;9.290;2023-11-21T08:34:28;9.10;93.80
57857;DHT22;43683;48.650;9.290;2023-11-21T08:36:54;9.10;93.80
57857;DHT22;43683;48.650;9.290;2023-11-21T08:39:21;9.10;93.70
57857;DHT22;43683;48.650;9.290;2023-11-21T08:41:49;9.20;93.70
57857;DHT22;43683;48.650;9.290;2023-11-21T08:44:16;9.20;93.70
57857;DHT22;43683;48.650;9.290;2023-11-21T08:46:43;9.30;93.60
57857;DHT22;43683;48.650;9.290;2023-11-21T08:49:11;9.30;93.50
57857;DHT22;43683;48.650;9.290;2023-11-21T08:51:37;9.50;93.40
57857;DHT22;43683;48.650;9.290;2023-11-21T08:54:03;9.50;93.30
57857;DHT22;43683;48.650;9.290;2023-11-21T08:56:32;9.60;93.20
57857;DHT22;43683;48.650;9.290;2023-11-21T08:58:57;9.70;93.20
57857;DHT22;43683;48.650;9.290;2023-11-21T09:01:23;9.70;93.20
57857;DHT22;43683;48.650;9.290;2023-11-21T09:03:50;9.70;93.20
57857;DHT22;43683;48.650;9.290;2023-11-21T09:06:15;9.70;93.20
57857;DHT22;43683;48.650;9.290;2023-11-21T09:08:41;9.70;93.20
57857;DHT22;43683;48.650;9.290;2023-11-21T09:11:07;9.60;93.20
57857;DHT22;43683;48.650;9.290;2023-11-21T09:13:33;9.60;93.20
57857;DHT22;43683;48.650;9.290;2023-11-21T09:16:00;9.60;93.20
57857;DHT22;43683;48.650;9.290;2023-11-21T09:18:25;9.60;93.20
57857;DHT22;43683;48.650;9.290;2023-11-21T09:20:51;9.60;93.20
57857;DHT22;43683;48.650;9.290;2023-11-21T09:23:16;9.60;93.20
57857;DHT22;43683;48.650;9.290;2023-11-21T09:25:42;9.50;93.30
57857;DHT22;43683;48.650;9.290;2023-11-21T09:28:11;9.30;93.50
57857;DHT22;43683;48.650;9.290;2023-11-21T09:30:37;9.20;93.80
57857;DHT22;43683;48.650;9.290;2023-11-21T09:33:04;9.10;94.10
57857;DHT22;43683;48.650;9.290;2023-11-21T09:35:33;9.10;94.30
57857;DHT22;43683;48.650;9.290;2023-11-21T09:37:59;9.20;94.30
57857;DHT22;43683;48.650;9.290;2023-11-21T09:40:27;9.70;94.40
57857;DHT22;43683;48.650;9.290;2023-11-21T09:42:55;10.50;94.50
57857;DHT22;43683;48.650;9.290;2023-11-21T09:47:55;11.70;93.50
57857;DHT22;43683;48.650;9.290;2023-11-21T09:50:22;11.80;93.20
57857;DHT22;43683;48.650;9.290;2023-11-21T09:55:37;12.50;92.40
57857;DHT22;43683;48.650;9.290;2023-11-21T09:58:04;12.40;92.30
57857;DHT22;43683;48.650;9.290;2023-11-21T10:00:33;12.30;92.10
57857;DHT22;43683;48.650;9.290;2023-11-21T10:02:59;12.20;92.00
57857;DHT22;43683;48.650;9.290;2023-11-21T10:05:25;12.10;91.70
57857;DHT22;43683;48.650;9.290;2023-11-21T10:07:51;12.10;91.70
57857;DHT22;43683;48.650;9.290;2023-11-21T10:10:19;12.50;91.50
57857;DHT22;43683;48.650;9.290;2023-11-21T10:12:50;12.50;91.10
57857;DHT22;43683;48.650;9.290;2023-11-21T10:15:21;12.40;90.80
57857;DHT22;43683;48.650;9.290;2023-11-21T10:17:49;12.20;90.50
57857;DHT22;43683;48.650;9.290;2023-11-21T10:20:14;11.90;90.50
57857;DHT22;43683;48.650;9.290;2023-11-21T10:22:42;11.70;90.70
57857;DHT22;43683;48.650;9.290;2023-11-21T10:25:08;11.50;90.70
57857;DHT22;43683;48.650;9.290;2023-11-21T10:27:35;11.30;90.70
57857;DHT22;43683;48.650;9.290;2023-11-21T10:30:04;11.00;90.80
57857;DHT22;43683;48.650;9.290;2023-11-21T10:32:30;10.80;91.00
57857;DHT22;43683;48.650;9.290;2023-11-21T10:34:59;10.70;91.20
57857;DHT22;43683;48.650;9.290;2023-11-21T10:37:32;10.70;91.20
57857;DHT22;43683;48.650;9.290;2023-11-21T10:39:58;10.70;91.10
57857;DHT22;43683;48.650;9.290;2023-11-21T10:42:24;10.70;90.90
57857;DHT22;43683;48.650;9.290;2023-11-21T10:44:50;10.80;90.80
57857;DHT22;43683;48.650;9.290;2023-11-21T10:47:17;10.80;90.70
57857;DHT22;43683;48.650;9.290;2023-11-21T10:49:44;10.80;90.60
57857;DHT22;43683;48.650;9.290;2023-11-21T10:52:13;10.90;90.60
57857;DHT22;43683;48.650;9.290;2023-11-21T10:54:46;10.90;90.60
57857;DHT22;43683;48.650;9.290;2023-11-21T10:57:15;11.00;90.40
57857;DHT22;43683;48.650;9.290;2023-11-21T10:59:46;11.10;90.30
57857;DHT22;43683;48.650;9.290;2023-11-21T11:02:23;11.10;90.10
57857;DHT22;43683;48.650;9.290;2023-11-21T11:04:52;11.10;90.00
57857;DHT22;43683;48.650;9.290;2023-11-21T11:07:17;11.00;90.10
57857;DHT22;43683;48.650;9.290;2023-11-21T11:09:46;11.00;90.30
57857;DHT22;43683;48.650;9.290;2023-11-21T11:12:12;10.90;90.40
57857;DHT22;43683;48.650;9.290;2023-11-21T11:14:41;10.90;90.40
57857;DHT22;43683;48.650;9.290;2023-11-21T11:17:07;11.00;90.30
57857;DHT22;43683;48.650;9.290;2023-11-21T11:19:34;11.00;90.20
57857;DHT22;43683;48.650;9.290;2023-11-21T11:33:21;10.90;90.40
57857;DHT22;43683;48.650;9.290;2023-11-21T11:38:33;10.50;90.80
57857;DHT22;43683;48.650;9.290;2023-11-21T11:41:02;10.10;91.30
57857;DHT22;43683;48.650;9.290;2023-11-21T11:43:29;9.90;91.80
57857;DHT22;43683;48.650;9.290;2023-11-21T11:45:56;9.70;92.10
57857;DHT22;43683;48.650;9.290;2023-11-21T11:48:22;9.50;92.40
57857;DHT22;43683;48.650;9.290;2023-11-21T11:51:10;9.30;92.60
57857;DHT22;43683;48.650;9.290;2023-11-21T11:53:41;9.20;93.00
57857;DHT22;43683;48.650;9.290;2023-11-21T11:56:28;9.00;93.10
57857;DHT22;43683;48.650;9.290;2023-11-21T11:58:57;9.00;93.20
57857;DHT22;43683;48.650;9.290;2023-11-21T12:01:25;8.90;93.10
57857;DHT22;43683;48.650;9.290;2023-11-21T12:07:05;9.30;92.80
57857;DHT22;43683;48.650;9.290;2023-11-21T12:09:31;9.50;92.70
57857;DHT22;43683;48.650;9.290;2023-11-21T12:11:57;9.60;92.60
57857;DHT22;43683;48.650;9.290;2023-11-21T12:14:23;9.70;92.70
57857;DHT22;43683;48.650;9.290;2023-11-21T12:16:49;9.80;92.60
57857;DHT22;43683;48.650;9.290;2023-11-21T12:19:14;9.80;92.80
57857;DHT22;43683;48.650;9.290;2023-11-21T12:21:40;9.90;92.80
57857;DHT22;43683;48.650;9.290;2023-11-21T12:24:14;9.70;92.90
57857;DHT22;43683;48.650;9.290;2023-11-21T12:26:40;9.70;93.00
57857;DHT22;43683;48.650;9.290;2023-11-21T12:29:06;9.60;93.20
57857;DHT22;43683;48.650;9.290;2023-11-21T12:31:33;9.60;93.30
57857;DHT22;43683;48.650;9.290;2023-11-21T12:33:59;9.60;93.30
57857;DHT22;43683;48.650;9.290;2023-11-21T12:36:25;9.60;93.80
57857;DHT22;43683;48.650;9.290;2023-11-21T12:38:51;9.50;93.50
57857;DHT22;43683;48.650;9.290;2023-11-21T12:41:17;9.50;93.50
57857;DHT22;43683;48.650;9.290;2023-11-21T12:43:43;9.50;93.60
57857;DHT22;43683;48.650;9.290;2023-11-21T12:46:10;9.50;93.70
57857;DHT22;43683;48.650;9.290;2023-11-21T12:48:39;9.50;93.70
57857;DHT22;43683;48.650;9.290;2023-11-21T12:51:07;9.50;93.70
57857;DHT22;43683;48.650;9.290;2023-11-21T12:53:33;9.60;93.60
57857;DHT22;43683;48.650;9.290;2023-11-21T12:56:12;9.60;93.50
57857;DHT22;43683;48.650;9.290;2023-11-21T12:58:39;9.70;93.40
57857;DHT22;43683;48.650;9.290;2023-11-21T13:01:06;9.70;93.30
57857;DHT22;43683;48.650;9.290;2023-11-21T13:03:37;9.70;93.20
57857;DHT22;43683;48.650;9.290;2023-11-21T13:06:04;9.80;93.10
57857;DHT22;43683;48.650;9.290;2023-11-21T13:08:30;9.80;93.10
57857;DHT22;43683;48.650;9.290;2023-11-21T13:10:57;9.80;93.40
57857;DHT22;43683;48.650;9.290;2023-11-21T13:13:23;9.80;93.10
57857;DHT22;43683;48.650;9.290;2023-11-21T13:15:51;9.80;93.00
57857;DHT22;43683;48.650;9.290;2023-11-21T13:18:18;9.90;93.00
57857;DHT22;43683;48.650;9.290;2023-11-21T13:20:44;9.90;92.90
57857;DHT22;43683;48.650;9.290;2023-11-21T13:23:11;10.00;92.90
57857;DHT22;43683;48.650;9.290;2023-11-21T13:25:44;10.10;93.00
57857;DHT22;43683;48.650;9.290;2023-11-21T13:28:11;10.30;92.90
57857;DHT22;43683;48.650;9.290;2023-11-21T13:30:37;10.30;92.90
57857;DHT22;43683;48.650;9.290;2023-11-21T13:33:05;10.30;92.90
57857;DHT22;43683;48.650;9.290;2023-11-21T13:35:36;10.40;92.80
57857;DHT22;43683;48.650;9.290;2023-11-21T13:38:16;10.50;92.70
57857;DHT22;43683;48.650;9.290;2023-11-21T13:40:47;10.60;92.40
57857;DHT22;43683;48.650;9.290;2023-11-21T13:43:17;10.80;92.40
57857;DHT22;43683;48.650;9.290;2023-11-21T13:45:48;10.80;92.20
57857;DHT22;43683;48.650;9.290;2023-11-21T13:48:16;10.80;92.50
57857;DHT22;43683;48.650;9.290;2023-11-21T13:50:50;10.80;92.30
57857;DHT22;43683;48.650;9.290;2023-11-21T13:53:35;10.60;92.30
57857;DHT22;43683;48.650;9.290;2023-11-21T13:56:03;10.50;92.40
57857;DHT22;43683;48.650;9.290;2023-11-21T13:58:29;10.40;92.40
57857;DHT22;43683;48.650;9.290;2023-11-21T14:01:23;10.40;92.30
57857;DHT22;43683;48.650;9.290;2023-11-21T14:04:08;10.40;92.40
57857;DHT22;43683;48.650;9.290;2023-11-21T14:06:46;10.50;92.30
57857;DHT22;43683;48.650;9.290;2023-11-21T14:09:19;10.50;92.30
57857;DHT22;43683;48.650;9.290;2023-11-21T14:11:52;10.40;92.20
57857;DHT22;43683;48.650;9.290;2023-11-21T14:14:19;10.40;92.20
57857;DHT22;43683;48.650;9.290;2023-11-21T14:16:45;10.40;92.50
57857;DHT22;43683;48.650;9.290;2023-11-21T14:19:11;10.40;92.20
57857;DHT22;43683;48.650;9.290;2023-11-21T14:21:44;10.20;92.20
57857;DHT22;43683;48.650;9.290;2023-11-21T14:24:13;9.90;92.60
57857;DHT22;43683;48.650;9.290;2023-11-21T14:26:43;9.70;93.40
57857;DHT22;43683;48.650;9.290;2023-11-21T14:29:20;9.40;93.50
57857;DHT22;43683;48.650;9.290;2023-11-21T14:31:46;9.20;93.70
57857;DHT22;43683;48.650;9.290;2023-11-21T14:34:12;9.10;93.90
57857;DHT22;43683;48.650;9.290;2023-11-21T14:36:39;9.00;94.00
57857;DHT22;43683;48.650;9.290;2023-11-21T14:39:05;8.80;94.10
57857;DHT22;43683;48.650;9.290;2023-11-21T14:41:41;8.70;94.20
57857;DHT22;43683;48.650;9.290;2023-11-21T14:44:08;8.70;94.30
57857;DHT22;43683;48.650;9.290;2023-11-21T14:46:37;8.70;94.60
57857;DHT22;43683;48.650;9.290;2023-11-21T14:49:05;8.70;94.30
57857;DHT22;43683;48.650;9.290;2023-11-21T14:51:46;8.70;94.30
57857;DHT22;43683;48.650;9.290;2023-11-21T14:54:29;8.60;94.40
57857;DHT22;43683;48.650;9.290;2023-11-21T14:57:12;8.60;94.40
57857;DHT22;43683;48.650;9.290;2023-11-21T14:59:45;8.50;94.50
57857;DHT22;43683;48.650;9.290;2023-11-21T15:02:18;8.40;94.60
57857;DHT22;43683;48.650;9.290;2023-11-21T15:04:50;8.40;94.60
57857;DHT22;43683;48.650;9.290;2023-11-21T15:07:26;8.40;94.70
57857;DHT22;43683;48.650;9.290;2023-11-21T15:09:52;8.30;94.80
57857;DHT22;43683;48.650;9.290;2023-11-21T15:12:19;8.30;94.90
57857;DHT22;43683;48.650;9.290;2023-11-21T15:14:49;8.20;95.00
57857;DHT22;43683;48.650;9.290;2023-11-21T15:17:18;8.20;95.10
57857;DHT22;43683;48.650;9.290;2023-11-21T15:19:56;8.20;95.10
57857;DHT22;43683;48.650;9.290;2023-11-21T15:22:22;8.10;95.20
57857;DHT22;43683;48.650;9.290;2023-11-21T15:24:48;8.10;95.30
57857;DHT22;43683;48.650;9.290;2023-11-21T15:27:15;8.00;95.40
57857;DHT22;43683;48.650;9.290;2023-11-21T15:29:41;8.00;95.40
57857;DHT22;43683;48.650;9.290;2023-11-21T15:32:08;8.00;95.50
57857;DHT22;43683;48.650;9.290;2023-11-21T15:34:38;8.00;95.50
57857;DHT22;43683;48.650;9.290;2023-11-21T15:37:04;8.00;95.60
57857;DHT22;43683;48.650;9.290;2023-11-21T15:39:31;8.00;95.60
57857;DHT22;43683;48.650;9.290;2023-11-21T15:41:57;8.10;95.50
57857;DHT22;43683;48.650;9.290;2023-11-21T15:44:24;8.10;95.50
57857;DHT22;43683;48.650;9.290;2023-11-21T15:46:51;8.10;95.50
57857;DHT22;43683;48.650;9.290;2023-11-21T15:49:17;8.10;95.60
57857;DHT22;43683;48.650;9.290;2023-11-21T15:51:47;8.10;95.60
57857;DHT22;43683;48.650;9.290;2023-11-21T15:54:18;8.10;95.60
57857;DHT22;43683;48.650;9.290;2023-11-21T15:56:45;8.10;95.60
57857;DHT22;43683;48.650;9.290;2023-11-21T15:59:11;8.20;95.60
57857;DHT22;43683;48.650;9.290;2023-11-21T16:01:37;8.10;95.50
57857;DHT22;43683;48.650;9.290;2023-11-21T16:04:12;8.20;95.60
57857;DHT22;43683;48.650;9.290;2023-11-21T16:06:41;8.20;95.60